Durango, CO

10:03 AM MDT on July 28, 2015 (GMT -0600)
Edgemont Highlands | | Change Station
CLOSE
Current Station
Personal Weather Station
Location: Durango, CO
Elevation: 7484 ft
Nearby Weather Stations

Elev 7484 ft 37.31 °N, 107.79 °W | Updated 6 seconds ago

Partly Cloudy
Partly Cloudy
72.8 °F
Feels Like 76 °F
N
1.0
Wind Variable Wind from WSW
Gusts 3.0 mph

Today
High -- | Low -- °F
--% Chance of Precip.
Yesterday
High -- | Low -- °F
Precip. -- in
6:12 AM 8:22 PM
Waxing Gibbous, 90% visible
Pressure 29.99 in
Visibility 10.0 miles
Clouds Mostly Cloudy 9500 ft
Heat Index 76 °F
Dew Point 37 °F
Humidity 27%
Rainfall 0.00 in
Snow Depth Not available.
UV 3 out of 12
Pollen 4.70 out of 12
Air Quality Not available.
Flu Activity Not available.
METAR KDRO 281553Z AUTO 08004KT 10SM BKN095 22/03 A3026 RMK AO2 SLP153 T02170033

More Conditions Fewer Conditions

Pressure 29.99 in
Visibility 10.0 miles
Clouds Mostly Cloudy 9500 ft
Heat Index 76 °F
Dew Point 37 °F
Humidity 27%
Rainfall 0.00 in
Snow Depth Not available.
UV 3 out of 12
Pollen 4.70 out of 12
Air Quality Not available.
Flu Activity Not available.
METAR KDRO 281553Z AUTO 08004KT 10SM BKN095 22/03 A3026 RMK AO2 SLP153 T02170033

More Conditions Fewer Conditions

10-Day Weather Forecast

×

Almanac

Astronomy

Jul. 28, 2015 Rise Set
Actual Time
Civil Twilight
Nautical Twilight
Astronomical Twilight
Moon
Length of Visible Light
Length of Day
Tomorrow will be .
, % of the Moon is Illuminated

Today's Extremes

State Highs State Lows

Community

WunderPhotos

Upload Photos

1,841,871 photos uploaded!

WunderBlogs® & News

Nearby

Air Quality

  Air Quality AQ Index Pollutant
Not available.

Snow Depth

Station Depth Elevation

Earthquake Activity

City Distance Mag. Time & Date
Minimum magnitude displayed is 2.5.

Coastal Water Temperatures

Place Temperature

Stations

Nearby Weather Stations

Station Location Temp. Windchill Dew Point Humidity Wind Precip. Elev Updated Type